Time,TemperatureF,DewpointF,PressureIn,WindDirection,WindDirectionDegrees,WindSpeedMPH,WindSpeedGustMPH,Humidity,HourlyPrecipIn,Conditions,Clouds,dailyrainin,SoftwareType,DateUTC
2013-02-09 00:13:00,-3.4,-6.0,30.41,NW,318,0.0,1.0,87,0.00,,,0.00,weatherlink.com 1.10,2013-02-09 05:13:00,
2013-02-09 00:28:00,-3.8,-7.0,30.43,NNW,329,0.0,2.0,87,0.00,,,0.00,weatherlink.com 1.10,2013-02-09 05:28:00,
2013-02-09 00:43:00,-4.3,-7.0,30.43,NNW,329,0.0,0.0,87,0.00,,,0.00,weatherlink.com 1.10,2013-02-09 05:43:00,
2013-02-09 00:58:00,-5.0,-8.0,30.44,NNW,329,0.0,0.0,87,0.00,,,0.00,weatherlink.com 1.10,2013-02-09 05:58:00,
2013-02-09 01:13:00,-5.5,-8.0,30.44,NW,318,0.0,0.0,88,0.00,,,0.00,weatherlink.com 1.10,2013-02-09 06:13:00,
2013-02-09 01:28:00,-6.6,-9.0,30.44,NW,318,0.0,1.0,87,0.00,,,0.00,weatherlink.com 1.10,2013-02-09 06:28:00,
2013-02-09 01:43:00,-7.9,-11.0,30.43,NW,318,0.0,0.0,86,0.00,,,0.00,weatherlink.com 1.10,2013-02-09 06:43:00,
2013-02-09 01:58:00,-8.6,-11.0,30.43,NW,316,0.0,0.0,87,0.00,,,0.00,weatherlink.com 1.10,2013-02-09 06:58:00,
2013-02-09 02:13:00,-9.0,-12.0,30.43,NW,318,0.0,1.0,87,0.00,,,0.00,weatherlink.com 1.10,2013-02-09 07:13:00,
2013-02-09 02:28:00,-9.8,-13.0,30.43,NW,318,0.0,0.0,86,0.00,,,0.00,weatherlink.com 1.10,2013-02-09 07:28:00,
2013-02-09 02:43:00,-10.1,-13.0,30.44,NW,318,0.0,1.0,87,0.00,,,0.00,weatherlink.com 1.10,2013-02-09 07:43:00,
2013-02-09 02:58:00,-10.1,-13.0,30.44,NW,318,0.0,0.0,87,0.00,,,0.00,weatherlink.com 1.10,2013-02-09 07:58:00,
2013-02-09 03:13:00,-10.6,-14.0,30.44,NW,318,0.0,0.0,86,0.00,,,0.00,weatherlink.com 1.10,2013-02-09 08:13:00,
2013-02-09 03:28:00,-11.0,-14.0,30.44,NW,318,0.0,0.0,86,0.00,,,0.00,weatherlink.com 1.10,2013-02-09 08:28:00,
2013-02-09 03:44:00,-11.5,-15.0,30.44,NW,318,0.0,0.0,86,0.00,,,0.00,weatherlink.com 1.10,2013-02-09 08:44:00,
2013-02-09 03:59:00,-12.3,-16.0,30.45,NW,318,0.0,0.0,85,0.00,,,0.00,weatherlink.com 1.10,2013-02-09 08:59:00,
2013-02-09 04:14:00,-12.1,-15.0,30.45,NW,318,0.0,0.0,86,0.00,,,0.00,weatherlink.com 1.10,2013-02-09 09:14:00,
2013-02-09 04:29:00,-12.2,-15.0,30.45,NW,318,0.0,0.0,85,0.00,,,0.00,weatherlink.com 1.10,2013-02-09 09:29:00,
2013-02-09 04:44:00,-12.7,-16.0,30.45,NW,318,0.0,0.0,85,0.00,,,0.00,weatherlink.com 1.10,2013-02-09 09:44:00,
2013-02-09 04:59:00,-12.5,-16.0,30.45,NW,318,0.0,0.0,86,0.00,,,0.00,weatherlink.com 1.10,2013-02-09 09:59:00,
2013-02-09 05:14:00,-12.2,-15.0,30.45,NW,318,0.0,0.0,86,0.00,,,0.00,weatherlink.com 1.10,2013-02-09 10:14:00,
2013-02-09 05:29:00,-12.6,-16.0,30.45,NW,318,0.0,0.0,85,0.00,,,0.00,weatherlink.com 1.10,2013-02-09 10:29:00,
2013-02-09 05:44:00,-12.8,-16.0,30.45,NW,318,0.0,0.0,85,0.00,,,0.00,weatherlink.com 1.10,2013-02-09 10:44:00,
2013-02-09 05:59:00,-9.6,-12.0,30.45,NNE,27,0.0,0.0,90,0.00,,,0.00,weatherlink.com 1.10,2013-02-09 10:59:00,
2013-02-09 06:14:00,-9.2,-12.0,30.45,ENE,71,0.0,0.0,88,0.00,,,0.00,weatherlink.com 1.10,2013-02-09 11:14:00,
2013-02-09 06:29:00,-8.6,-11.0,30.45,ESE,113,0.0,0.0,88,0.00,,,0.00,weatherlink.com 1.10,2013-02-09 11:29:00,
2013-02-09 06:44:00,-7.7,-10.0,30.45,ESE,115,0.0,1.0,88,0.00,,,0.00,weatherlink.com 1.10,2013-02-09 11:44:00,
2013-02-09 06:59:00,-6.1,-9.0,30.46,ESE,102,0.0,2.0,89,0.00,,,0.00,weatherlink.com 1.10,2013-02-09 11:59:00,
2013-02-09 07:15:00,-6.3,-9.0,30.46,SE,131,0.0,1.0,87,0.00,,,0.00,weatherlink.com 1.10,2013-02-09 12:15:00,
2013-02-09 07:30:00,-6.2,-9.0,30.47,ESE,107,0.0,1.0,87,0.00,,,0.00,weatherlink.com 1.10,2013-02-09 12:30:00,
2013-02-09 07:45:00,-6.3,-9.0,30.46,SE,124,0.0,1.0,87,0.00,,,0.00,weatherlink.com 1.10,2013-02-09 12:45:00,
2013-02-09 08:00:00,-6.6,-9.0,30.46,ESE,106,0.0,1.0,87,0.00,,,0.00,weatherlink.com 1.10,2013-02-09 13:00:00,
2013-02-09 08:15:00,-4.4,-7.0,30.47,NE,50,0.0,1.0,89,0.00,,,0.00,weatherlink.com 1.10,2013-02-09 13:15:00,
2013-02-09 08:30:00,-2.5,-5.0,30.46,ESE,103,1.0,3.0,88,0.00,,,0.00,weatherlink.com 1.10,2013-02-09 13:30:00,
2013-02-09 08:45:00,-0.8,-4.0,30.47,ESE,121,2.0,3.0,86,0.00,,,0.00,weatherlink.com 1.10,2013-02-09 13:45:00,
2013-02-09 09:00:00,0.6,-3.0,30.48,ENE,71,0.0,2.0,84,0.00,,,0.00,weatherlink.com 1.10,2013-02-09 14:00:00,
2013-02-09 09:15:00,1.6,-3.0,30.47,ENE,63,3.0,4.0,82,0.00,,,0.00,weatherlink.com 1.10,2013-02-09 14:15:00,
2013-02-09 09:30:00,2.5,-2.0,30.46,ENE,60,2.0,4.0,80,0.00,,,0.00,weatherlink.com 1.10,2013-02-09 14:30:00,
2013-02-09 09:45:00,4.0,-1.0,30.46,ESE,110,4.0,6.0,80,0.00,,,0.00,weatherlink.com 1.10,2013-02-09 14:45:00,
2013-02-09 10:00:00,5.1,0.0,30.45,ENE,71,2.0,5.0,79,0.00,,,0.00,weatherlink.com 1.10,2013-02-09 15:00:00,
2013-02-09 10:15:00,5.8,1.0,30.45,East,97,4.0,5.0,79,0.00,,,0.00,weatherlink.com 1.10,2013-02-09 15:15:00,
2013-02-09 10:30:00,6.6,1.0,30.45,ENE,67,1.0,4.0,79,0.00,,,0.00,weatherlink.com 1.10,2013-02-09 15:30:00,
2013-02-09 10:46:00,7.3,2.0,30.45,East,91,2.0,3.0,79,0.00,,,0.00,weatherlink.com 1.10,2013-02-09 15:46:00,
2013-02-09 11:01:00,7.8,3.0,30.45,ESE,114,2.0,5.0,79,0.00,,,0.00,weatherlink.com 1.10,2013-02-09 16:01:00,
2013-02-09 11:16:00,8.9,4.0,30.45,ESE,123,1.0,4.0,80,0.00,,,0.00,weatherlink.com 1.10,2013-02-09 16:16:00,
2013-02-09 11:31:00,9.9,5.0,30.44,NE,51,0.0,5.0,79,0.00,,,0.00,weatherlink.com 1.10,2013-02-09 16:31:00,
2013-02-09 11:46:00,10.8,6.0,30.44,ESE,120,4.0,6.0,79,0.00,,,0.00,weatherlink.com 1.10,2013-02-09 16:46:00,
2013-02-09 12:01:00,12.0,6.0,30.43,ENE,71,1.0,5.0,78,0.00,,,0.00,weatherlink.com 1.10,2013-02-09 17:01:00,
2013-02-09 12:16:00,12.9,7.0,30.43,East,83,2.0,6.0,78,0.00,,,0.00,weatherlink.com 1.10,2013-02-09 17:16:00,
2013-02-09 12:31:00,13.7,8.0,30.42,ESE,113,4.0,6.0,79,0.00,,,0.00,weatherlink.com 1.10,2013-02-09 17:31:00,
2013-02-09 12:46:00,14.9,10.0,30.41,East,95,2.0,5.0,79,0.00,,,0.00,weatherlink.com 1.10,2013-02-09 17:46:00,
2013-02-09 13:01:00,15.9,10.0,30.41,East,89,5.0,6.0,78,0.00,,,0.00,weatherlink.com 1.10,2013-02-09 18:01:00,
2013-02-09 13:16:00,16.9,11.0,30.40,ENE,77,1.0,4.0,79,0.00,,,0.00,weatherlink.com 1.10,2013-02-09 18:16:00,
2013-02-09 13:31:00,18.1,12.0,30.40,East,97,2.0,7.0,78,0.00,,,0.00,weatherlink.com 1.10,2013-02-09 18:31:00,
2013-02-09 13:46:00,18.5,12.0,30.40,SE,126,1.0,6.0,77,0.00,,,0.00,weatherlink.com 1.10,2013-02-09 18:46:00,
2013-02-09 14:02:00,19.2,13.0,30.39,ESE,115,4.0,6.0,77,0.00,,,0.00,weatherlink.com 1.10,2013-02-09 19:02:00,
2013-02-09 14:17:00,19.9,14.0,30.38,NE,49,2.0,7.0,76,0.00,,,0.00,weatherlink.com 1.10,2013-02-09 19:17:00,
2013-02-09 14:32:00,20.4,14.0,30.36,East,82,5.0,8.0,75,0.00,,,0.00,weatherlink.com 1.10,2013-02-09 19:32:00,
2013-02-09 14:47:00,20.6,14.0,30.36,ESE,115,4.0,7.0,75,0.00,,,0.00,weatherlink.com 1.10,2013-02-09 19:47:00,
2013-02-09 15:02:00,19.4,13.0,30.36,SE,127,4.0,6.0,76,0.00,,,0.00,weatherlink.com 1.10,2013-02-09 20:02:00,
2013-02-09 15:17:00,18.7,13.0,30.35,ESE,102,4.0,7.0,78,0.00,,,0.00,weatherlink.com 1.10,2013-02-09 20:17:00,
2013-02-09 15:32:00,19.9,14.0,30.35,ENE,77,2.0,5.0,78,0.00,,,0.00,weatherlink.com 1.10,2013-02-09 20:32:00,
2013-02-09 15:47:00,20.3,14.0,30.35,ESE,108,3.0,7.0,76,0.00,,,0.00,weatherlink.com 1.10,2013-02-09 20:47:00,
2013-02-09 16:02:00,19.0,13.0,30.35,East,96,5.0,7.0,78,0.00,,,0.00,weatherlink.com 1.10,2013-02-09 21:02:00,
2013-02-09 16:17:00,19.4,14.0,30.35,ENE,74,0.0,7.0,79,0.00,,,0.00,weatherlink.com 1.10,2013-02-09 21:17:00,
2013-02-09 16:32:00,20.0,14.0,30.34,ENE,77,1.0,4.0,78,0.00,,,0.00,weatherlink.com 1.10,2013-02-09 21:32:00,
2013-02-09 16:47:00,20.3,14.0,30.34,ESE,102,2.0,6.0,78,0.00,,,0.00,weatherlink.com 1.10,2013-02-09 21:47:00,
2013-02-09 17:02:00,19.6,14.0,30.33,NE,49,3.0,6.0,78,0.00,,,0.00,weatherlink.com 1.10,2013-02-09 22:02:00,
2013-02-09 17:18:00,17.7,13.0,30.32,SE,133,0.0,8.0,80,0.00,,,0.00,weatherlink.com 1.10,2013-02-09 22:18:00,
2013-02-09 17:33:00,15.9,12.0,30.32,ESE,117,3.0,7.0,83,0.00,,,0.00,weatherlink.com 1.10,2013-02-09 22:33:00,
2013-02-09 17:48:00,14.4,11.0,30.31,East,96,1.0,4.0,86,0.00,,,0.00,weatherlink.com 1.10,2013-02-09 22:48:00,
2013-02-09 18:03:00,13.3,10.0,30.31,ENE,67,2.0,6.0,87,0.00,,,0.00,weatherlink.com 1.10,2013-02-09 23:03:00,
2013-02-09 18:18:00,12.6,10.0,30.31,East,87,2.0,5.0,87,0.00,,,0.00,weatherlink.com 1.10,2013-02-09 23:18:00,
2013-02-09 18:33:00,12.5,10.0,30.31,East,84,3.0,6.0,88,0.00,,,0.00,weatherlink.com 1.10,2013-02-09 23:33:00,
2013-02-09 18:48:00,12.6,10.0,30.31,ENE,70,1.0,5.0,88,0.00,,,0.00,weatherlink.com 1.10,2013-02-09 23:48:00,
2013-02-09 19:03:00,12.3,9.0,30.30,East,93,0.0,3.0,88,0.00,,,0.00,weatherlink.com 1.10,2013-02-10 00:03:00,
2013-02-09 19:18:00,12.1,10.0,30.30,East,84,3.0,3.0,89,0.00,,,0.00,weatherlink.com 1.10,2013-02-10 00:18:00,
2013-02-09 19:33:00,11.6,9.0,30.30,East,85,1.0,5.0,89,0.00,,,0.00,weatherlink.com 1.10,2013-02-10 00:33:00,
2013-02-09 19:48:00,11.2,9.0,30.30,NE,49,0.0,4.0,90,0.00,,,0.00,weatherlink.com 1.10,2013-02-10 00:48:00,
2013-02-09 20:03:00,10.4,8.0,30.29,East,79,3.0,3.0,90,0.00,,,0.00,weatherlink.com 1.10,2013-02-10 01:03:00,
2013-02-09 20:18:00,9.9,8.0,30.29,East,79,1.0,2.0,91,0.00,,,0.00,weatherlink.com 1.10,2013-02-10 01:18:00,
2013-02-09 20:34:00,9.3,7.0,30.28,ENE,71,0.0,1.0,91,0.00,,,0.00,weatherlink.com 1.10,2013-02-10 01:34:00,
2013-02-09 20:49:00,8.8,7.0,30.27,ESE,102,5.0,5.0,91,0.00,,,0.00,weatherlink.com 1.10,2013-02-10 01:49:00,
2013-02-09 21:04:00,8.9,7.0,30.27,ENE,68,0.0,1.0,92,0.00,,,0.00,weatherlink.com 1.10,2013-02-10 02:04:00,
2013-02-09 21:19:00,8.3,6.0,30.27,ENE,74,0.0,1.0,91,0.00,,,0.00,weatherlink.com 1.10,2013-02-10 02:19:00,
2013-02-09 21:34:00,7.5,6.0,30.27,ENE,74,0.0,0.0,91,0.00,,,0.00,weatherlink.com 1.10,2013-02-10 02:34:00,
2013-02-09 21:49:00,10.5,9.0,30.27,SE,127,2.0,2.0,93,0.00,,,0.00,weatherlink.com 1.10,2013-02-10 02:49:00,
2013-02-09 22:04:00,16.7,15.0,30.26,SSE,151,2.0,5.0,94,0.00,,,0.00,weatherlink.com 1.10,2013-02-10 03:04:00,
2013-02-09 22:19:00,20.3,18.0,30.27,SE,127,1.0,7.0,91,0.00,,,0.00,weatherlink.com 1.10,2013-02-10 03:19:00,
2013-02-09 22:34:00,21.2,18.0,30.26,SSE,155,3.0,7.0,88,0.00,,,0.00,weatherlink.com 1.10,2013-02-10 03:34:00,
2013-02-09 22:49:00,22.1,19.0,30.26,SW,214,2.0,7.0,86,0.00,,,0.00,weatherlink.com 1.10,2013-02-10 03:49:00,
2013-02-09 23:04:00,22.2,18.0,30.26,SE,133,0.0,7.0,85,0.00,,,0.00,weatherlink.com 1.10,2013-02-10 04:04:00,
2013-02-09 23:19:00,22.2,18.0,30.25,ESE,122,1.0,7.0,84,0.00,,,0.00,weatherlink.com 1.10,2013-02-10 04:19:00,
2013-02-09 23:34:00,22.1,18.0,30.25,SSE,162,5.0,7.0,84,0.00,,,0.00,weatherlink.com 1.10,2013-02-10 04:34:00,
2013-02-09 23:49:00,21.9,18.0,30.26,SSW,205,1.0,5.0,84,0.00,,,0.00,weatherlink.com 1.10,2013-02-10 04:49:00,